sensor_id;sensor_type;location;lat;lon;timestamp;temperature;humidity
1760;DHT22;877;46.266;20.062;2023-06-22T00:01:12;24.10;72.10
1760;DHT22;877;46.266;20.062;2023-06-22T00:03:37;23.90;72.30
1760;DHT22;877;46.266;20.062;2023-06-22T00:06:03;23.80;72.80
1760;DHT22;877;46.266;20.062;2023-06-22T00:08:29;23.90;72.30
1760;DHT22;877;46.266;20.062;2023-06-22T00:10:54;23.80;72.90
1760;DHT22;877;46.266;20.062;2023-06-22T00:13:26;23.60;73.40
1760;DHT22;877;46.266;20.062;2023-06-22T00:15:54;23.50;74.10
1760;DHT22;877;46.266;20.062;2023-06-22T00:18:20;23.40;75.10
1760;DHT22;877;46.266;20.062;2023-06-22T00:20:46;23.40;75.20
1760;DHT22;877;46.266;20.062;2023-06-22T00:23:12;23.40;75.60
1760;DHT22;877;46.266;20.062;2023-06-22T00:25:39;23.20;76.30
1760;DHT22;877;46.266;20.062;2023-06-22T00:28:05;23.20;76.20
1760;DHT22;877;46.266;20.062;2023-06-22T00:30:33;23.20;76.20
1760;DHT22;877;46.266;20.062;2023-06-22T00:32:59;23.20;76.10
1760;DHT22;877;46.266;20.062;2023-06-22T00:35:26;23.20;75.80
1760;DHT22;877;46.266;20.062;2023-06-22T00:37:56;23.30;75.60
1760;DHT22;877;46.266;20.062;2023-06-22T00:40:32;23.00;76.70
1760;DHT22;877;46.266;20.062;2023-06-22T00:42:59;23.00;76.00
1760;DHT22;877;46.266;20.062;2023-06-22T00:45:27;23.10;75.90
1760;DHT22;877;46.266;20.062;2023-06-22T00:51:14;23.20;75.20
1760;DHT22;877;46.266;20.062;2023-06-22T00:53:47;23.30;74.70
1760;DHT22;877;46.266;20.062;2023-06-22T00:59:50;23.00;75.40
1760;DHT22;877;46.266;20.062;2023-06-22T01:02:16;23.20;74.40
1760;DHT22;877;46.266;20.062;2023-06-22T01:04:41;23.10;74.60
1760;DHT22;877;46.266;20.062;2023-06-22T01:10:03;23.10;74.30
1760;DHT22;877;46.266;20.062;2023-06-22T01:12:36;23.30;73.80
1760;DHT22;877;46.266;20.062;2023-06-22T01:15:36;23.30;73.30
1760;DHT22;877;46.266;20.062;2023-06-22T01:18:04;23.30;72.90
1760;DHT22;877;46.266;20.062;2023-06-22T01:20:37;23.20;73.40
1760;DHT22;877;46.266;20.062;2023-06-22T01:23:11;23.30;72.80
1760;DHT22;877;46.266;20.062;2023-06-22T01:26:17;23.30;72.40
1760;DHT22;877;46.266;20.062;2023-06-22T01:28:53;23.00;73.60
1760;DHT22;877;46.266;20.062;2023-06-22T01:31:27;22.90;73.80
1760;DHT22;877;46.266;20.062;2023-06-22T01:33:59;23.20;73.10
1760;DHT22;877;46.266;20.062;2023-06-22T01:36:27;23.30;72.40
1760;DHT22;877;46.266;20.062;2023-06-22T01:38:53;23.10;73.10
1760;DHT22;877;46.266;20.062;2023-06-22T01:41:20;23.20;73.10
1760;DHT22;877;46.266;20.062;2023-06-22T01:43:47;23.10;73.60
1760;DHT22;877;46.266;20.062;2023-06-22T01:46:15;23.00;74.40
1760;DHT22;877;46.266;20.062;2023-06-22T01:48:44;22.70;75.60
1760;DHT22;877;46.266;20.062;2023-06-22T01:51:10;22.90;74.90
1760;DHT22;877;46.266;20.062;2023-06-22T01:53:36;22.80;75.20
1760;DHT22;877;46.266;20.062;2023-06-22T01:56:02;22.90;75.20
1760;DHT22;877;46.266;20.062;2023-06-22T01:58:29;22.90;75.10
1760;DHT22;877;46.266;20.062;2023-06-22T02:00:59;22.60;76.10
1760;DHT22;877;46.266;20.062;2023-06-22T02:03:32;22.70;76.00
1760;DHT22;877;46.266;20.062;2023-06-22T02:06:10;22.70;76.00
1760;DHT22;877;46.266;20.062;2023-06-22T02:08:41;22.50;77.10
1760;DHT22;877;46.266;20.062;2023-06-22T02:11:13;22.30;78.00
1760;DHT22;877;46.266;20.062;2023-06-22T02:13:40;22.40;78.00
1760;DHT22;877;46.266;20.062;2023-06-22T02:16:12;22.40;77.80
1760;DHT22;877;46.266;20.062;2023-06-22T02:18:38;22.40;78.00
1760;DHT22;877;46.266;20.062;2023-06-22T02:21:06;22.30;78.40
1760;DHT22;877;46.266;20.062;2023-06-22T02:23:32;22.30;78.50
1760;DHT22;877;46.266;20.062;2023-06-22T02:26:02;22.20;78.90
1760;DHT22;877;46.266;20.062;2023-06-22T02:28:27;22.20;79.20
1760;DHT22;877;46.266;20.062;2023-06-22T02:30:53;22.20;79.10
1760;DHT22;877;46.266;20.062;2023-06-22T02:33:19;22.10;79.40
1760;DHT22;877;46.266;20.062;2023-06-22T02:35:45;22.30;78.90
1760;DHT22;877;46.266;20.062;2023-06-22T02:38:13;22.10;79.50
1760;DHT22;877;46.266;20.062;2023-06-22T02:40:39;22.30;79.10
1760;DHT22;877;46.266;20.062;2023-06-22T02:43:04;22.00;80.10
1760;DHT22;877;46.266;20.062;2023-06-22T02:45:30;22.00;80.30
1760;DHT22;877;46.266;20.062;2023-06-22T02:47:56;22.10;80.00
1760;DHT22;877;46.266;20.062;2023-06-22T02:50:22;22.10;80.30
1760;DHT22;877;46.266;20.062;2023-06-22T02:52:48;22.00;80.30
1760;DHT22;877;46.266;20.062;2023-06-22T02:55:14;22.00;80.20
1760;DHT22;877;46.266;20.062;2023-06-22T02:57:40;22.10;80.40
1760;DHT22;877;46.266;20.062;2023-06-22T03:00:10;21.90;81.00
1760;DHT22;877;46.266;20.062;2023-06-22T03:02:45;22.10;80.20
1760;DHT22;877;46.266;20.062;2023-06-22T03:05:12;22.20;80.20
1760;DHT22;877;46.266;20.062;2023-06-22T03:07:46;22.00;80.40
1760;DHT22;877;46.266;20.062;2023-06-22T03:10:13;22.00;80.70
1760;DHT22;877;46.266;20.062;2023-06-22T03:12:39;21.80;81.40
1760;DHT22;877;46.266;20.062;2023-06-22T03:15:06;21.90;81.10
1760;DHT22;877;46.266;20.062;2023-06-22T03:17:34;22.00;80.60
1760;DHT22;877;46.266;20.062;2023-06-22T03:20:02;22.00;80.90
1760;DHT22;877;46.266;20.062;2023-06-22T03:22:36;21.90;81.30
1760;DHT22;877;46.266;20.062;2023-06-22T03:25:02;21.90;81.40
1760;DHT22;877;46.266;20.062;2023-06-22T03:27:28;21.80;81.80
1760;DHT22;877;46.266;20.062;2023-06-22T03:29:57;21.80;81.90
1760;DHT22;877;46.266;20.062;2023-06-22T03:32:22;21.90;81.80
1760;DHT22;877;46.266;20.062;2023-06-22T03:34:48;21.80;82.10
1760;DHT22;877;46.266;20.062;2023-06-22T03:37:14;21.80;82.30
1760;DHT22;877;46.266;20.062;2023-06-22T03:39:41;21.90;81.90
1760;DHT22;877;46.266;20.062;2023-06-22T03:42:07;22.00;81.60
1760;DHT22;877;46.266;20.062;2023-06-22T03:44:34;21.80;82.20
1760;DHT22;877;46.266;20.062;2023-06-22T03:47:02;21.80;82.50
1760;DHT22;877;46.266;20.062;2023-06-22T03:49:28;22.00;81.50
1760;DHT22;877;46.266;20.062;2023-06-22T03:51:54;22.20;80.80
1760;DHT22;877;46.266;20.062;2023-06-22T03:54:20;22.50;79.80
1760;DHT22;877;46.266;20.062;2023-06-22T03:56:45;22.70;79.00
1760;DHT22;877;46.266;20.062;2023-06-22T03:59:11;22.80;78.70
1760;DHT22;877;46.266;20.062;2023-06-22T04:01:38;22.90;78.60
1760;DHT22;877;46.266;20.062;2023-06-22T04:04:05;22.90;78.40
1760;DHT22;877;46.266;20.062;2023-06-22T04:06:31;23.00;78.20
1760;DHT22;877;46.266;20.062;2023-06-22T04:08:56;22.90;78.40
1760;DHT22;877;46.266;20.062;2023-06-22T04:11:22;22.80;78.90
1760;DHT22;877;46.266;20.062;2023-06-22T04:13:48;22.90;77.50
1760;DHT22;877;46.266;20.062;2023-06-22T04:16:14;22.80;77.90
1760;DHT22;877;46.266;20.062;2023-06-22T04:18:40;22.70;78.60
1760;DHT22;877;46.266;20.062;2023-06-22T04:21:07;22.90;78.00
1760;DHT22;877;46.266;20.062;2023-06-22T04:23:33;22.90;77.30
1760;DHT22;877;46.266;20.062;2023-06-22T04:25:58;22.80;77.70
1760;DHT22;877;46.266;20.062;2023-06-22T04:28:27;22.90;76.90
1760;DHT22;877;46.266;20.062;2023-06-22T04:30:53;22.90;77.10
1760;DHT22;877;46.266;20.062;2023-06-22T04:33:23;23.00;76.20
1760;DHT22;877;46.266;20.062;2023-06-22T04:35:49;23.10;76.20
1760;DHT22;877;46.266;20.062;2023-06-22T04:38:16;23.30;75.90
1760;DHT22;877;46.266;20.062;2023-06-22T04:40:42;23.50;75.40
1760;DHT22;877;46.266;20.062;2023-06-22T04:43:08;23.60;74.80
1760;DHT22;877;46.266;20.062;2023-06-22T04:45:35;23.70;74.70
1760;DHT22;877;46.266;20.062;2023-06-22T04:48:05;23.70;74.20
1760;DHT22;877;46.266;20.062;2023-06-22T04:50:31;23.80;73.70
1760;DHT22;877;46.266;20.062;2023-06-22T04:52:58;23.70;73.90
1760;DHT22;877;46.266;20.062;2023-06-22T04:55:24;23.90;73.50
1760;DHT22;877;46.266;20.062;2023-06-22T04:57:51;23.70;74.00
1760;DHT22;877;46.266;20.062;2023-06-22T05:00:18;23.90;73.40
1760;DHT22;877;46.266;20.062;2023-06-22T05:02:46;23.90;73.60
1760;DHT22;877;46.266;20.062;2023-06-22T05:05:13;24.20;72.60
1760;DHT22;877;46.266;20.062;2023-06-22T05:07:41;24.20;72.60
1760;DHT22;877;46.266;20.062;2023-06-22T05:10:09;24.20;72.80
1760;DHT22;877;46.266;20.062;2023-06-22T05:12:36;24.10;72.90
1760;DHT22;877;46.266;20.062;2023-06-22T05:15:01;24.10;72.00
1760;DHT22;877;46.266;20.062;2023-06-22T05:17:27;24.00;73.00
1760;DHT22;877;46.266;20.062;2023-06-22T05:19:53;24.20;72.80
1760;DHT22;877;46.266;20.062;2023-06-22T05:22:20;24.20;72.70
1760;DHT22;877;46.266;20.062;2023-06-22T05:24:46;24.40;72.30
1760;DHT22;877;46.266;20.062;2023-06-22T05:27:13;24.30;72.50
1760;DHT22;877;46.266;20.062;2023-06-22T05:29:39;24.10;72.70
1760;DHT22;877;46.266;20.062;2023-06-22T05:32:05;24.20;72.80
1760;DHT22;877;46.266;20.062;2023-06-22T05:34:32;24.50;72.00
1760;DHT22;877;46.266;20.062;2023-06-22T05:36:58;24.50;72.10
1760;DHT22;877;46.266;20.062;2023-06-22T05:39:26;24.70;71.20
1760;DHT22;877;46.266;20.062;2023-06-22T05:41:52;24.90;71.70
1760;DHT22;877;46.266;20.062;2023-06-22T05:44:18;24.90;70.80
1760;DHT22;877;46.266;20.062;2023-06-22T05:46:45;25.00;70.50
1760;DHT22;877;46.266;20.062;2023-06-22T05:49:12;25.00;70.60
1760;DHT22;877;46.266;20.062;2023-06-22T05:51:38;25.20;69.40
1760;DHT22;877;46.266;20.062;2023-06-22T05:54:04;25.20;69.90
1760;DHT22;877;46.266;20.062;2023-06-22T05:56:30;25.30;68.80
1760;DHT22;877;46.266;20.062;2023-06-22T05:58:56;25.20;68.90
1760;DHT22;877;46.266;20.062;2023-06-22T06:01:21;25.20;69.00
1760;DHT22;877;46.266;20.062;2023-06-22T06:03:47;25.10;69.50
1760;DHT22;877;46.266;20.062;2023-06-22T06:06:15;25.30;69.30
1760;DHT22;877;46.266;20.062;2023-06-22T06:08:42;25.10;69.90
1760;DHT22;877;46.266;20.062;2023-06-22T06:11:08;25.00;70.50
1760;DHT22;877;46.266;20.062;2023-06-22T06:13:34;25.10;70.10
1760;DHT22;877;46.266;20.062;2023-06-22T06:15:59;25.30;70.00
1760;DHT22;877;46.266;20.062;2023-06-22T06:18:26;25.10;69.50
1760;DHT22;877;46.266;20.062;2023-06-22T06:20:54;25.10;70.20
1760;DHT22;877;46.266;20.062;2023-06-22T06:23:19;25.10;69.90
1760;DHT22;877;46.266;20.062;2023-06-22T06:25:45;25.20;70.40
1760;DHT22;877;46.266;20.062;2023-06-22T06:28:13;25.20;70.10
1760;DHT22;877;46.266;20.062;2023-06-22T06:30:38;25.40;69.50
1760;DHT22;877;46.266;20.062;2023-06-22T06:33:04;25.40;69.10
1760;DHT22;877;46.266;20.062;2023-06-22T06:35:34;25.50;69.80
1760;DHT22;877;46.266;20.062;2023-06-22T06:38:00;25.50;69.40
1760;DHT22;877;46.266;20.062;2023-06-22T06:40:26;25.80;68.80
1760;DHT22;877;46.266;20.062;2023-06-22T06:42:51;25.70;68.10
1760;DHT22;877;46.266;20.062;2023-06-22T06:45:22;25.80;68.20
1760;DHT22;877;46.266;20.062;2023-06-22T06:47:48;25.80;67.80
1760;DHT22;877;46.266;20.062;2023-06-22T06:50:14;25.80;68.20
1760;DHT22;877;46.266;20.062;2023-06-22T06:52:40;25.80;67.90
1760;DHT22;877;46.266;20.062;2023-06-22T06:55:08;26.10;67.50
1760;DHT22;877;46.266;20.062;2023-06-22T06:57:37;26.30;66.70
1760;DHT22;877;46.266;20.062;2023-06-22T07:00:12;26.60;66.50
1760;DHT22;877;46.266;20.062;2023-06-22T07:02:45;26.70;64.90
1760;DHT22;877;46.266;20.062;2023-06-22T07:05:12;26.80;65.40
1760;DHT22;877;46.266;20.062;2023-06-22T07:07:38;27.00;65.10
1760;DHT22;877;46.266;20.062;2023-06-22T07:10:05;27.10;65.90
1760;DHT22;877;46.266;20.062;2023-06-22T07:12:31;27.00;64.50
1760;DHT22;877;46.266;20.062;2023-06-22T07:15:07;27.20;64.90
1760;DHT22;877;46.266;20.062;2023-06-22T07:17:38;27.20;65.10
1760;DHT22;877;46.266;20.062;2023-06-22T07:20:07;27.50;64.00
1760;DHT22;877;46.266;20.062;2023-06-22T07:22:40;27.60;64.20
1760;DHT22;877;46.266;20.062;2023-06-22T07:25:06;27.60;64.80
1760;DHT22;877;46.266;20.062;2023-06-22T07:27:45;28.00;62.50
1760;DHT22;877;46.266;20.062;2023-06-22T07:30:11;28.40;62.50
1760;DHT22;877;46.266;20.062;2023-06-22T07:32:37;28.40;61.10
1760;DHT22;877;46.266;20.062;2023-06-22T07:35:04;28.60;60.10
1760;DHT22;877;46.266;20.062;2023-06-22T07:37:32;28.90;60.70
1760;DHT22;877;46.266;20.062;2023-06-22T07:39:59;29.20;59.70
1760;DHT22;877;46.266;20.062;2023-06-22T07:42:26;29.50;58.90
1760;DHT22;877;46.266;20.062;2023-06-22T07:44:52;29.50;58.20
1760;DHT22;877;46.266;20.062;2023-06-22T07:47:18;29.60;56.90
1760;DHT22;877;46.266;20.062;2023-06-22T07:49:48;29.60;56.30
1760;DHT22;877;46.266;20.062;2023-06-22T07:52:13;29.30;57.20
1760;DHT22;877;46.266;20.062;2023-06-22T07:54:39;29.80;57.10
1760;DHT22;877;46.266;20.062;2023-06-22T07:57:05;30.00;58.10
1760;DHT22;877;46.266;20.062;2023-06-22T07:59:31;29.90;57.40
1760;DHT22;877;46.266;20.062;2023-06-22T08:01:57;29.20;59.50
1760;DHT22;877;46.266;20.062;2023-06-22T08:04:23;29.40;60.20
1760;DHT22;877;46.266;20.062;2023-06-22T08:06:49;29.70;59.30
1760;DHT22;877;46.266;20.062;2023-06-22T08:09:15;29.80;58.80
1760;DHT22;877;46.266;20.062;2023-06-22T08:11:40;30.20;57.80
1760;DHT22;877;46.266;20.062;2023-06-22T08:14:06;30.10;58.40
1760;DHT22;877;46.266;20.062;2023-06-22T08:16:32;30.50;57.70
1760;DHT22;877;46.266;20.062;2023-06-22T08:18:57;31.20;56.30
1760;DHT22;877;46.266;20.062;2023-06-22T08:21:23;30.90;53.60
1760;DHT22;877;46.266;20.062;2023-06-22T08:23:49;30.70;56.20
1760;DHT22;877;46.266;20.062;2023-06-22T08:26:15;30.60;55.90
1760;DHT22;877;46.266;20.062;2023-06-22T08:28:40;31.10;55.90
1760;DHT22;877;46.266;20.062;2023-06-22T08:31:06;31.10;55.60
1760;DHT22;877;46.266;20.062;2023-06-22T08:33:32;31.00;55.30
1760;DHT22;877;46.266;20.062;2023-06-22T08:35:58;31.50;54.30
1760;DHT22;877;46.266;20.062;2023-06-22T08:38:25;31.60;54.30
1760;DHT22;877;46.266;20.062;2023-06-22T08:40:51;31.50;54.60
1760;DHT22;877;46.266;20.062;2023-06-22T08:43:17;32.00;54.10
1760;DHT22;877;46.266;20.062;2023-06-22T08:45:43;32.60;52.30
1760;DHT22;877;46.266;20.062;2023-06-22T08:48:08;32.50;52.40
1760;DHT22;877;46.266;20.062;2023-06-22T08:50:34;32.30;52.50
1760;DHT22;877;46.266;20.062;2023-06-22T08:53:00;32.10;52.30
1760;DHT22;877;46.266;20.062;2023-06-22T08:55:25;32.50;52.60
1760;DHT22;877;46.266;20.062;2023-06-22T08:57:51;32.30;52.50
1760;DHT22;877;46.266;20.062;2023-06-22T09:00:17;32.60;50.70
1760;DHT22;877;46.266;20.062;2023-06-22T09:02:46;32.60;50.70
1760;DHT22;877;46.266;20.062;2023-06-22T09:05:12;32.60;50.60
1760;DHT22;877;46.266;20.062;2023-06-22T09:07:38;32.80;50.60
1760;DHT22;877;46.266;20.062;2023-06-22T09:10:05;32.70;50.30
1760;DHT22;877;46.266;20.062;2023-06-22T09:12:31;33.40;50.10
1760;DHT22;877;46.266;20.062;2023-06-22T09:14:59;33.60;48.60
1760;DHT22;877;46.266;20.062;2023-06-22T09:17:28;33.80;48.00
1760;DHT22;877;46.266;20.062;2023-06-22T09:19:54;33.50;48.00
1760;DHT22;877;46.266;20.062;2023-06-22T09:22:20;33.60;49.60
1760;DHT22;877;46.266;20.062;2023-06-22T09:24:46;34.40;47.10
1760;DHT22;877;46.266;20.062;2023-06-22T09:27:12;33.90;47.50
1760;DHT22;877;46.266;20.062;2023-06-22T09:29:37;33.80;48.40
1760;DHT22;877;46.266;20.062;2023-06-22T09:32:03;33.70;47.90
1760;DHT22;877;46.266;20.062;2023-06-22T09:34:30;33.80;47.10
1760;DHT22;877;46.266;20.062;2023-06-22T09:36:57;33.70;46.90
1760;DHT22;877;46.266;20.062;2023-06-22T09:39:22;34.20;46.10
1760;DHT22;877;46.266;20.062;2023-06-22T09:41:48;34.70;45.80
1760;DHT22;877;46.266;20.062;2023-06-22T09:44:14;34.70;45.60
1760;DHT22;877;46.266;20.062;2023-06-22T09:46:40;34.90;46.00
1760;DHT22;877;46.266;20.062;2023-06-22T09:49:06;34.50;45.90
1760;DHT22;877;46.266;20.062;2023-06-22T09:51:32;35.30;45.40
1760;DHT22;877;46.266;20.062;2023-06-22T09:53:58;34.60;45.20
1760;DHT22;877;46.266;20.062;2023-06-22T09:56:24;34.30;45.80
1760;DHT22;877;46.266;20.062;2023-06-22T09:58:49;35.20;44.00
1760;DHT22;877;46.266;20.062;2023-06-22T10:01:18;35.50;43.80
1760;DHT22;877;46.266;20.062;2023-06-22T10:03:44;35.00;44.20
1760;DHT22;877;46.266;20.062;2023-06-22T10:06:10;34.30;45.30
1760;DHT22;877;46.266;20.062;2023-06-22T10:08:35;34.10;45.30
1760;DHT22;877;46.266;20.062;2023-06-22T10:11:02;34.70;44.90
1760;DHT22;877;46.266;20.062;2023-06-22T10:13:28;35.40;42.80
1760;DHT22;877;46.266;20.062;2023-06-22T10:15:54;34.20;44.60
1760;DHT22;877;46.266;20.062;2023-06-22T10:18:20;34.50;44.90
1760;DHT22;877;46.266;20.062;2023-06-22T10:20:48;34.40;44.90
1760;DHT22;877;46.266;20.062;2023-06-22T10:23:17;34.50;45.30
1760;DHT22;877;46.266;20.062;2023-06-22T10:25:42;35.00;43.80
1760;DHT22;877;46.266;20.062;2023-06-22T10:28:08;35.60;43.60
1760;DHT22;877;46.266;20.062;2023-06-22T10:30:34;35.40;43.00
1760;DHT22;877;46.266;20.062;2023-06-22T10:32:59;35.80;42.00
1760;DHT22;877;46.266;20.062;2023-06-22T10:35:25;35.50;42.80
1760;DHT22;877;46.266;20.062;2023-06-22T10:37:51;35.40;43.20
1760;DHT22;877;46.266;20.062;2023-06-22T10:40:17;36.00;42.60
1760;DHT22;877;46.266;20.062;2023-06-22T10:42:44;35.70;43.50
1760;DHT22;877;46.266;20.062;2023-06-22T10:45:10;36.30;41.10
1760;DHT22;877;46.266;20.062;2023-06-22T10:47:36;36.30;41.60
1760;DHT22;877;46.266;20.062;2023-06-22T10:50:03;34.70;44.00
1760;DHT22;877;46.266;20.062;2023-06-22T10:52:29;34.70;44.40
1760;DHT22;877;46.266;20.062;2023-06-22T10:54:54;35.30;43.60
1760;DHT22;877;46.266;20.062;2023-06-22T10:57:21;35.60;42.40
1760;DHT22;877;46.266;20.062;2023-06-22T10:59:47;36.00;42.00
1760;DHT22;877;46.266;20.062;2023-06-22T11:02:13;34.40;44.40
1760;DHT22;877;46.266;20.062;2023-06-22T11:04:39;35.60;43.50
1760;DHT22;877;46.266;20.062;2023-06-22T11:07:05;35.90;43.20
1760;DHT22;877;46.266;20.062;2023-06-22T11:09:31;35.70;43.00
1760;DHT22;877;46.266;20.062;2023-06-22T11:11:57;35.90;43.00
1760;DHT22;877;46.266;20.062;2023-06-22T11:14:24;35.50;43.60
1760;DHT22;877;46.266;20.062;2023-06-22T11:17:16;35.70;42.50
1760;DHT22;877;46.266;20.062;2023-06-22T11:19:42;34.90;43.10
1760;DHT22;877;46.266;20.062;2023-06-22T11:22:08;34.50;44.20
1760;DHT22;877;46.266;20.062;2023-06-22T11:24:33;34.40;45.80
1760;DHT22;877;46.266;20.062;2023-06-22T11:26:59;34.70;44.80
1760;DHT22;877;46.266;20.062;2023-06-22T11:29:25;34.00;45.80
1760;DHT22;877;46.266;20.062;2023-06-22T11:31:51;33.90;46.40
1760;DHT22;877;46.266;20.062;2023-06-22T11:34:16;34.20;45.40
1760;DHT22;877;46.266;20.062;2023-06-22T11:36:42;35.20;44.90
1760;DHT22;877;46.266;20.062;2023-06-22T11:39:09;34.60;44.70
1760;DHT22;877;46.266;20.062;2023-06-22T11:41:35;34.80;44.60
1760;DHT22;877;46.266;20.062;2023-06-22T11:44:01;33.60;46.90
1760;DHT22;877;46.266;20.062;2023-06-22T11:46:26;34.20;46.50
1760;DHT22;877;46.266;20.062;2023-06-22T11:48:52;35.20;44.90
1760;DHT22;877;46.266;20.062;2023-06-22T11:51:21;35.20;43.50
1760;DHT22;877;46.266;20.062;2023-06-22T11:53:47;35.10;43.70
1760;DHT22;877;46.266;20.062;2023-06-22T11:56:12;35.40;43.40
1760;DHT22;877;46.266;20.062;2023-06-22T11:58:38;34.90;45.10
1760;DHT22;877;46.266;20.062;2023-06-22T12:01:04;34.60;44.90
1760;DHT22;877;46.266;20.062;2023-06-22T12:03:30;35.20;45.40
1760;DHT22;877;46.266;20.062;2023-06-22T12:05:56;34.50;45.60
1760;DHT22;877;46.266;20.062;2023-06-22T12:08:21;34.40;46.00
1760;DHT22;877;46.266;20.062;2023-06-22T12:10:49;34.70;45.30
1760;DHT22;877;46.266;20.062;2023-06-22T12:13:15;35.20;43.70
1760;DHT22;877;46.266;20.062;2023-06-22T12:15:41;34.60;45.10
1760;DHT22;877;46.266;20.062;2023-06-22T12:18:07;34.90;44.70
1760;DHT22;877;46.266;20.062;2023-06-22T12:20:34;35.00;44.90
1760;DHT22;877;46.266;20.062;2023-06-22T12:22:59;34.40;45.50
1760;DHT22;877;46.266;20.062;2023-06-22T12:25:25;34.60;45.70
1760;DHT22;877;46.266;20.062;2023-06-22T12:27:52;34.40;46.70
1760;DHT22;877;46.266;20.062;2023-06-22T12:30:18;34.60;46.20
1760;DHT22;877;46.266;20.062;2023-06-22T12:32:43;34.60;45.70
1760;DHT22;877;46.266;20.062;2023-06-22T12:35:09;34.50;45.80
1760;DHT22;877;46.266;20.062;2023-06-22T12:37:41;34.30;45.60
1760;DHT22;877;46.266;20.062;2023-06-22T12:40:08;34.00;45.60
1760;DHT22;877;46.266;20.062;2023-06-22T12:42:34;34.20;46.30
1760;DHT22;877;46.266;20.062;2023-06-22T12:45:00;34.90;46.40
1760;DHT22;877;46.266;20.062;2023-06-22T12:47:25;35.00;45.30
1760;DHT22;877;46.266;20.062;2023-06-22T12:49:51;34.90;45.60
1760;DHT22;877;46.266;20.062;2023-06-22T12:52:17;34.50;45.90
1760;DHT22;877;46.266;20.062;2023-06-22T12:54:43;34.40;45.40
1760;DHT22;877;46.266;20.062;2023-06-22T12:57:08;34.40;45.70
1760;DHT22;877;46.266;20.062;2023-06-22T12:59:35;34.60;46.30
1760;DHT22;877;46.266;20.062;2023-06-22T13:02:01;34.60;45.30
1760;DHT22;877;46.266;20.062;2023-06-22T13:04:26;34.40;46.70
1760;DHT22;877;46.266;20.062;2023-06-22T13:06:52;34.70;45.60
1760;DHT22;877;46.266;20.062;2023-06-22T13:09:19;35.00;45.40
1760;DHT22;877;46.266;20.062;2023-06-22T13:11:45;35.00;45.10
1760;DHT22;877;46.266;20.062;2023-06-22T13:14:10;35.10;44.50
1760;DHT22;877;46.266;20.062;2023-06-22T13:16:36;34.80;45.80
1760;DHT22;877;46.266;20.062;2023-06-22T13:19:02;35.30;45.70
1760;DHT22;877;46.266;20.062;2023-06-22T13:21:28;34.70;45.50
1760;DHT22;877;46.266;20.062;2023-06-22T13:23:53;35.10;45.00
1760;DHT22;877;46.266;20.062;2023-06-22T13:26:21;34.90;46.50
1760;DHT22;877;46.266;20.062;2023-06-22T13:28:46;35.50;44.40
1760;DHT22;877;46.266;20.062;2023-06-22T13:31:12;34.80;46.70
1760;DHT22;877;46.266;20.062;2023-06-22T13:33:38;34.90;45.00
1760;DHT22;877;46.266;20.062;2023-06-22T13:36:06;35.10;45.50
1760;DHT22;877;46.266;20.062;2023-06-22T13:38:34;34.30;46.50
1760;DHT22;877;46.266;20.062;2023-06-22T13:40:59;34.80;45.90
1760;DHT22;877;46.266;20.062;2023-06-22T13:43:26;35.80;45.30
1760;DHT22;877;46.266;20.062;2023-06-22T13:45:52;35.30;45.20
1760;DHT22;877;46.266;20.062;2023-06-22T13:48:18;35.80;43.90
1760;DHT22;877;46.266;20.062;2023-06-22T13:50:44;36.00;43.60
1760;DHT22;877;46.266;20.062;2023-06-22T13:53:10;35.70;44.80
1760;DHT22;877;46.266;20.062;2023-06-22T13:55:35;36.00;43.90
1760;DHT22;877;46.266;20.062;2023-06-22T13:58:01;35.90;43.80
1760;DHT22;877;46.266;20.062;2023-06-22T14:00:27;36.40;42.70
1760;DHT22;877;46.266;20.062;2023-06-22T14:02:53;35.70;43.90
1760;DHT22;877;46.266;20.062;2023-06-22T14:05:20;36.30;43.50
1760;DHT22;877;46.266;20.062;2023-06-22T14:07:46;36.10;44.20
1760;DHT22;877;46.266;20.062;2023-06-22T14:10:11;35.90;44.40
1760;DHT22;877;46.266;20.062;2023-06-22T14:12:37;35.50;44.50
1760;DHT22;877;46.266;20.062;2023-06-22T14:15:03;35.40;45.20
1760;DHT22;877;46.266;20.062;2023-06-22T14:17:29;35.50;45.50
1760;DHT22;877;46.266;20.062;2023-06-22T14:19:55;35.20;45.70
1760;DHT22;877;46.266;20.062;2023-06-22T14:22:22;35.30;45.80
1760;DHT22;877;46.266;20.062;2023-06-22T14:24:48;35.90;44.10
1760;DHT22;877;46.266;20.062;2023-06-22T14:27:15;35.30;45.00
1760;DHT22;877;46.266;20.062;2023-06-22T14:29:41;36.10;44.00
1760;DHT22;877;46.266;20.062;2023-06-22T14:32:07;36.30;43.80
1760;DHT22;877;46.266;20.062;2023-06-22T14:34:34;36.30;43.70
1760;DHT22;877;46.266;20.062;2023-06-22T14:37:02;36.80;43.50
1760;DHT22;877;46.266;20.062;2023-06-22T14:39:28;36.10;43.60
1760;DHT22;877;46.266;20.062;2023-06-22T14:41:54;36.10;43.60
1760;DHT22;877;46.266;20.062;2023-06-22T14:44:20;36.80;42.10
1760;DHT22;877;46.266;20.062;2023-06-22T14:46:45;36.70;42.00
1760;DHT22;877;46.266;20.062;2023-06-22T14:49:11;36.60;42.50
1760;DHT22;877;46.266;20.062;2023-06-22T14:51:38;36.70;41.90
1760;DHT22;877;46.266;20.062;2023-06-22T14:54:03;37.20;41.30
1760;DHT22;877;46.266;20.062;2023-06-22T14:56:29;37.30;41.30
1760;DHT22;877;46.266;20.062;2023-06-22T14:58:55;36.60;42.40
1760;DHT22;877;46.266;20.062;2023-06-22T15:01:21;36.10;43.50
1760;DHT22;877;46.266;20.062;2023-06-22T15:03:47;36.80;42.50
1760;DHT22;877;46.266;20.062;2023-06-22T15:06:13;36.40;43.00
1760;DHT22;877;46.266;20.062;2023-06-22T15:08:42;36.50;42.90
1760;DHT22;877;46.266;20.062;2023-06-22T15:11:08;36.70;42.60
1760;DHT22;877;46.266;20.062;2023-06-22T15:13:34;36.90;42.50
1760;DHT22;877;46.266;20.062;2023-06-22T15:16:03;37.00;42.20
1760;DHT22;877;46.266;20.062;2023-06-22T15:18:29;36.70;42.30
1760;DHT22;877;46.266;20.062;2023-06-22T15:20:55;36.90;42.50
1760;DHT22;877;46.266;20.062;2023-06-22T15:23:21;37.30;41.90
1760;DHT22;877;46.266;20.062;2023-06-22T15:25:47;36.60;42.50
1760;DHT22;877;46.266;20.062;2023-06-22T15:28:13;36.70;42.60
1760;DHT22;877;46.266;20.062;2023-06-22T15:30:39;36.20;43.60
1760;DHT22;877;46.266;20.062;2023-06-22T15:33:05;35.60;45.30
1760;DHT22;877;46.266;20.062;2023-06-22T15:35:30;36.30;44.50
1760;DHT22;877;46.266;20.062;2023-06-22T15:37:56;36.10;44.50
1760;DHT22;877;46.266;20.062;2023-06-22T15:40:22;36.90;43.10
1760;DHT22;877;46.266;20.062;2023-06-22T15:42:51;36.40;44.20
1760;DHT22;877;46.266;20.062;2023-06-22T15:45:17;36.30;44.60
1760;DHT22;877;46.266;20.062;2023-06-22T15:47:43;36.30;44.30
1760;DHT22;877;46.266;20.062;2023-06-22T15:50:09;36.10;44.80
1760;DHT22;877;46.266;20.062;2023-06-22T15:52:35;36.10;44.70
1760;DHT22;877;46.266;20.062;2023-06-22T15:55:00;36.10;45.00
1760;DHT22;877;46.266;20.062;2023-06-22T15:57:28;36.30;44.60
1760;DHT22;877;46.266;20.062;2023-06-22T15:59:54;35.60;45.10
1760;DHT22;877;46.266;20.062;2023-06-22T16:02:20;36.30;44.00
1760;DHT22;877;46.266;20.062;2023-06-22T16:04:46;36.50;44.60
1760;DHT22;877;46.266;20.062;2023-06-22T16:07:12;36.70;43.70
1760;DHT22;877;46.266;20.062;2023-06-22T16:09:39;37.10;42.70